185-3 — WDF9705 — position and weather

sailwx.info

Track history (hours):
 
Tides and Currents Weather Stations Pressure Air Temp Water Temp Dewpoint Dewpoint Depression Visibility Wind Speed Wind Dir Waves Ship Positions

185-3

Owner: Curtin Maritime Corp, Long Beach, CA. More information available from US FCC via Universal Licensing System and Coast Guard Vessel Documentation Center.

Last reported at 2018-Jun-25 11:30 UTC. Time now 2018-Jun-25 11:37 UTC.
Position N 33°46' W 118°13'.

Length 56 m.

Type: Ship. MMSI: 367507960.

Date/timePositionNaut miles runAvg speedWind from/ knotsBaromVisibWave heightAir tempDewpointWater temp
2018-Jun-25 11:30N 33°46' W 118°13'0 0.0
2018-Jun-25 11:00N 33°46' W 118°13'0 0.0
2018-Jun-25 10:31N 33°46' W 118°13'0 0.0
2018-Jun-25 10:00N 33°46' W 118°13'0 0.0
2018-Jun-25 09:30N 33°46' W 118°13'0 0.0
2018-Jun-25 09:00N 33°46' W 118°13'0 0.0
2018-Jun-25 08:30N 33°46' W 118°13'0 0.0
2018-Jun-25 08:00N 33°46' W 118°13'0 0.0
2018-Jun-25 07:30N 33°46' W 118°13'0 0.0
2018-Jun-25 07:00N 33°46' W 118°13'0 0.0
2018-Jun-25 06:30N 33°46' W 118°13'0 0.0
2018-Jun-25 06:01N 33°46' W 118°13'0 0.0
2018-Jun-25 05:30N 33°46' W 118°13'0 0.0
2018-Jun-25 05:00N 33°46' W 118°13'0 0.0
2018-Jun-25 04:29N 33°46' W 118°13'0 0.0
2018-Jun-25 04:00N 33°46' W 118°13'0 0.0
2018-Jun-25 03:30N 33°46' W 118°13'0 0.0
2018-Jun-25 03:01N 33°46' W 118°13'0 0.0
2018-Jun-25 02:30N 33°46' W 118°13'0 0.0
2018-Jun-25 02:01N 33°46' W 118°13'0 0.0
2018-Jun-25 01:30N 33°46' W 118°13'0 0.0
2018-Jun-25 01:00N 33°46' W 118°13'0 0.0
2018-Jun-25 00:31N 33°46' W 118°13'0 0.0
2018-Jun-25 00:01N 33°46' W 118°13'0 0.0
2018-Jun-24 23:31N 33°46' W 118°13'0 0.0
2018-Jun-24 23:00N 33°46' W 118°13'0 0.0
2018-Jun-24 22:30N 33°46' W 118°13'0 0.0
2018-Jun-24 22:00N 33°46' W 118°13'0 0.0
2018-Jun-24 21:30N 33°46' W 118°13'0 0.0
2018-Jun-24 21:00N 33°46' W 118°13'0 0.0
2018-Jun-24 20:30N 33°46' W 118°13'0 0.0
2018-Jun-24 20:00N 33°46' W 118°13'0 0.0
2018-Jun-24 19:30N 33°46' W 118°13'0 0.0
2018-Jun-24 19:00N 33°46' W 118°13'0 0.0
2018-Jun-24 18:30N 33°46' W 118°13'1 2.3
2018-Jun-24 18:01N 33°45' W 118°13'3 5.4
2018-Jun-24 17:30N 33°43' W 118°15'2 3.0
2018-Jun-24 17:00N 33°43' W 118°16'0 0.0
2018-Jun-24 16:30N 33°43' W 118°16'2 4.5
2018-Jun-24 16:00N 33°43' W 118°14'3 5.7
2018-Jun-24 15:31N 33°46' W 118°13'0 0.7
2018-Jun-24 15:00N 33°46' W 118°13'0 0.0
2018-Jun-24 14:30N 33°46' W 118°13'0 0.0
2018-Jun-24 14:00N 33°46' W 118°13'0 0.0
2018-Jun-24 13:30N 33°46' W 118°13'0 0.0
2018-Jun-24 13:00N 33°46' W 118°13'0 0.0
2018-Jun-24 12:30N 33°46' W 118°13'0 0.0
2018-Jun-24 12:01N 33°46' W 118°13'0 0.0
2018-Jun-24 11:30N 33°46' W 118°13'0 0.0
2018-Jun-24 11:00N 33°46' W 118°13'0 0.0
2018-Jun-24 10:30N 33°46' W 118°13'0 0.0
2018-Jun-24 10:00N 33°46' W 118°13'0 0.0
2018-Jun-24 09:30N 33°46' W 118°13'0 0.0
2018-Jun-24 09:01N 33°46' W 118°13'0 0.0
2018-Jun-24 08:30N 33°46' W 118°13'0 0.0
2018-Jun-24 08:00N 33°46' W 118°13'0 0.0
2018-Jun-24 07:30N 33°46' W 118°13'0 0.0
2018-Jun-24 07:00N 33°46' W 118°13'0 0.0
2018-Jun-24 06:30N 33°46' W 118°13'0 0.0
2018-Jun-24 06:00N 33°46' W 118°13'0 0.0
2018-Jun-24 05:31N 33°46' W 118°13'0 0.0
2018-Jun-24 05:00N 33°46' W 118°13'0 0.0
2018-Jun-24 04:30N 33°46' W 118°13'0 0.0
2018-Jun-24 04:00N 33°46' W 118°13'0 0.0
2018-Jun-24 03:30N 33°46' W 118°13'0 0.0
2018-Jun-24 03:00N 33°46' W 118°13'0 0.1
2018-Jun-24 02:31N 33°46' W 118°13'0 0.0
2018-Jun-24 02:01N 33°46' W 118°13'0 0.1
2018-Jun-24 01:30N 33°46' W 118°13'0 0.1
2018-Jun-24 01:00N 33°46' W 118°13'0 0.0
2018-Jun-24 00:30N 33°46' W 118°13'0 0.0
2018-Jun-24 00:01N 33°46' W 118°13'0 0.0
2018-Jun-23 23:31N 33°46' W 118°13'0 0.0
2018-Jun-23 23:00N 33°46' W 118°13'0 0.0
2018-Jun-23 22:30N 33°46' W 118°13'0 0.0
2018-Jun-23 22:00N 33°46' W 118°13'0 0.0
2018-Jun-23 21:31N 33°46' W 118°13'0 0.0
2018-Jun-23 21:00N 33°46' W 118°13'0 0.0
2018-Jun-23 20:30N 33°46' W 118°13'0 0.0
2018-Jun-23 20:00N 33°46' W 118°13'0 0.0
2018-Jun-23 19:30N 33°46' W 118°13'0 0.0
2018-Jun-23 19:00N 33°46' W 118°13'0 0.1
2018-Jun-23 18:30N 33°46' W 118°13'0 0.1
2018-Jun-23 18:00N 33°46' W 118°13'0 0.1
2018-Jun-23 17:30N 33°46' W 118°13'0 0.1
2018-Jun-23 17:00N 33°46' W 118°13'0 0.0
2018-Jun-23 16:30N 33°46' W 118°13'0 0.0
2018-Jun-23 16:00N 33°46' W 118°13'0 0.0
2018-Jun-23 15:31N 33°46' W 118°13'0 0.1
2018-Jun-23 15:00N 33°46' W 118°13'0 0.0
2018-Jun-23 14:30N 33°46' W 118°13'0 0.1
2018-Jun-23 14:00N 33°46' W 118°13'0 0.1
2018-Jun-23 13:30N 33°46' W 118°13'0 0.1
2018-Jun-23 13:00N 33°46' W 118°13'0 0.0
2018-Jun-23 12:30N 33°46' W 118°13'0 0.0
2018-Jun-23 12:00N 33°46' W 118°13'0 0.0
2018-Jun-23 11:30N 33°46' W 118°13'0 0.0
2018-Jun-23 11:00N 33°46' W 118°13'0 0.1
2018-Jun-23 10:30N 33°46' W 118°13'0 0.0
2018-Jun-23 10:00N 33°46' W 118°13'0 0.1
2018-Jun-23 09:30N 33°46' W 118°13'0 0.0
2018-Jun-23 09:00N 33°46' W 118°13'0 0.0
2018-Jun-23 08:30N 33°46' W 118°13'0 0.0
2018-Jun-23 08:00N 33°46' W 118°13'0 0.0
2018-Jun-23 07:30N 33°46' W 118°13'0 0.0
2018-Jun-23 07:00N 33°46' W 118°13'0 0.0
2018-Jun-23 06:31N 33°46' W 118°13'0 0.0
2018-Jun-23 06:00N 33°46' W 118°13'0 0.1
2018-Jun-23 05:30N 33°46' W 118°13'0 0.1
2018-Jun-23 05:01N 33°46' W 118°13'0 0.0
2018-Jun-23 04:30N 33°46' W 118°13'0 0.0
2018-Jun-23 04:00N 33°46' W 118°13'0 0.0
2018-Jun-23 03:30N 33°46' W 118°13'0 0.0
2018-Jun-23 03:00N 33°46' W 118°13'0 0.0
2018-Jun-23 02:30N 33°46' W 118°13'0 0.1
2018-Jun-23 02:00N 33°46' W 118°13'0 0.0
2018-Jun-23 01:30N 33°46' W 118°13'0 0.0
2018-Jun-23 01:00N 33°46' W 118°13'0 0.0
2018-Jun-23 00:30N 33°46' W 118°13'0 0.0
2018-Jun-23 00:00N 33°46' W 118°13'0 0.0
2018-Jun-22 23:31N 33°46' W 118°13'0 0.0
2018-Jun-22 23:00N 33°46' W 118°13'0 0.0
2018-Jun-22 22:29N 33°46' W 118°13'0 0.1
2018-Jun-22 22:00N 33°46' W 118°13'0 0.0
2018-Jun-22 21:29N 33°46' W 118°13'0 0.0
2018-Jun-22 20:59N 33°46' W 118°13'0 0.0
2018-Jun-22 20:30N 33°46' W 118°13'0 0.0
2018-Jun-22 20:00N 33°46' W 118°13'0 0.0
2018-Jun-22 19:30N 33°46' W 118°13'0 0.1
2018-Jun-22 19:00N 33°46' W 118°13'0 0.0
2018-Jun-22 18:30N 33°46' W 118°13'0 0.3
2018-Jun-22 18:00N 33°46' W 118°13'0 0.1
2018-Jun-22 17:30N 33°46' W 118°13'0 0.0
2018-Jun-22 17:01N 33°46' W 118°13'0 0.0
2018-Jun-22 16:31N 33°46' W 118°13'0 0.0
2018-Jun-22 16:00N 33°46' W 118°13'0 0.0
2018-Jun-22 15:30N 33°46' W 118°13'0 0.0
2018-Jun-22 14:59N 33°46' W 118°13'0 0.0
2018-Jun-22 14:30N 33°46' W 118°13'0 0.0
2018-Jun-22 14:00N 33°46' W 118°13'0 0.0
2018-Jun-22 13:30N 33°46' W 118°13'0 0.0
2018-Jun-22 13:00N 33°46' W 118°13'0 0.0
2018-Jun-22 12:30N 33°46' W 118°13'0 0.0
2018-Jun-22 12:01N 33°46' W 118°13'0 0.0
2018-Jun-22 11:31N 33°46' W 118°13'0 0.0
2018-Jun-22 11:00N 33°46' W 118°13'0 0.0
2018-Jun-22 10:29N 33°46' W 118°13'0 0.0
2018-Jun-22 10:00N 33°46' W 118°13'0 0.0
2018-Jun-22 09:30N 33°46' W 118°13'0 0.0
2018-Jun-22 09:00N 33°46' W 118°13'0 0.0
2018-Jun-22 08:29N 33°46' W 118°13'0 0.0
2018-Jun-22 08:00N 33°46' W 118°13'0 0.0
2018-Jun-22 07:30N 33°46' W 118°13'0 0.0
2018-Jun-22 07:00N 33°46' W 118°13'0 0.0
2018-Jun-22 06:30N 33°46' W 118°13'0 0.0
2018-Jun-22 06:00N 33°46' W 118°13'0 0.0
2018-Jun-22 05:30N 33°46' W 118°13'0 0.0
2018-Jun-22 05:00N 33°46' W 118°13'1 2.8
2018-Jun-22 04:30N 33°45' W 118°13'3 5.7
2018-Jun-22 04:00N 33°43' W 118°15'3 5.5
2018-Jun-22 03:29N 33°41' W 118°18'3 5.8
2018-Jun-22 03:00N 33°42' W 118°21'8 5.3
2018-Jun-22 01:30N 33°48' W 118°27'3 5.5
2018-Jun-22 01:00N 33°50' W 118°28'  
Track history (hours):
 
Tides and Currents Weather Stations Pressure Air Temp Water Temp Dewpoint Dewpoint Depression Visibility Wind Speed Wind Dir Waves Ship Positions

185-3

Owner: Curtin Maritime Corp, Long Beach, CA. More information available from US FCC via Universal Licensing System and Coast Guard Vessel Documentation Center.

Last reported at 2018-Jun-25 11:30 UTC. Time now 2018-Jun-25 11:37 UTC.
Position N 33°46' W 118°13'.

Length 56 m.

Type: Ship. MMSI: 367507960.

Date/timePositionNaut miles runAvg speedWind from/ knotsBaromVisibWave heightAir tempDewpointWater temp
2018-Jun-25 11:30N 33°46' W 118°13'0 0.0
2018-Jun-25 11:00N 33°46' W 118°13'0 0.0
2018-Jun-25 10:31N 33°46' W 118°13'0 0.0
2018-Jun-25 10:00N 33°46' W 118°13'0 0.0
2018-Jun-25 09:30N 33°46' W 118°13'0 0.0
2018-Jun-25 09:00N 33°46' W 118°13'0 0.0
2018-Jun-25 08:30N 33°46' W 118°13'0 0.0
2018-Jun-25 08:00N 33°46' W 118°13'0 0.0
2018-Jun-25 07:30N 33°46' W 118°13'0 0.0
2018-Jun-25 07:00N 33°46' W 118°13'0 0.0
2018-Jun-25 06:30N 33°46' W 118°13'0 0.0
2018-Jun-25 06:01N 33°46' W 118°13'0 0.0
2018-Jun-25 05:30N 33°46' W 118°13'0 0.0
2018-Jun-25 05:00N 33°46' W 118°13'0 0.0
2018-Jun-25 04:29N 33°46' W 118°13'0 0.0
2018-Jun-25 04:00N 33°46' W 118°13'0 0.0
2018-Jun-25 03:30N 33°46' W 118°13'0 0.0
2018-Jun-25 03:01N 33°46' W 118°13'0 0.0
2018-Jun-25 02:30N 33°46' W 118°13'0 0.0
2018-Jun-25 02:01N 33°46' W 118°13'0 0.0
2018-Jun-25 01:30N 33°46' W 118°13'0 0.0
2018-Jun-25 01:00N 33°46' W 118°13'0 0.0
2018-Jun-25 00:31N 33°46' W 118°13'0 0.0
2018-Jun-25 00:01N 33°46' W 118°13'0 0.0
2018-Jun-24 23:31N 33°46' W 118°13'0 0.0
2018-Jun-24 23:00N 33°46' W 118°13'0 0.0
2018-Jun-24 22:30N 33°46' W 118°13'0 0.0
2018-Jun-24 22:00N 33°46' W 118°13'0 0.0
2018-Jun-24 21:30N 33°46' W 118°13'0 0.0
2018-Jun-24 21:00N 33°46' W 118°13'0 0.0
2018-Jun-24 20:30N 33°46' W 118°13'0 0.0
2018-Jun-24 20:00N 33°46' W 118°13'0 0.0
2018-Jun-24 19:30N 33°46' W 118°13'0 0.0
2018-Jun-24 19:00N 33°46' W 118°13'0 0.0
2018-Jun-24 18:30N 33°46' W 118°13'1 2.3
2018-Jun-24 18:01N 33°45' W 118°13'3 5.4
2018-Jun-24 17:30N 33°43' W 118°15'2 3.0
2018-Jun-24 17:00N 33°43' W 118°16'0 0.0
2018-Jun-24 16:30N 33°43' W 118°16'2 4.5
2018-Jun-24 16:00N 33°43' W 118°14'3 5.7
2018-Jun-24 15:31N 33°46' W 118°13'0 0.7
2018-Jun-24 15:00N 33°46' W 118°13'0 0.0
2018-Jun-24 14:30N 33°46' W 118°13'0 0.0
2018-Jun-24 14:00N 33°46' W 118°13'0 0.0
2018-Jun-24 13:30N 33°46' W 118°13'0 0.0
2018-Jun-24 13:00N 33°46' W 118°13'0 0.0
2018-Jun-24 12:30N 33°46' W 118°13'0 0.0
2018-Jun-24 12:01N 33°46' W 118°13'0 0.0
2018-Jun-24 11:30N 33°46' W 118°13'0 0.0
2018-Jun-24 11:00N 33°46' W 118°13'0 0.0
2018-Jun-24 10:30N 33°46' W 118°13'0 0.0
2018-Jun-24 10:00N 33°46' W 118°13'0 0.0
2018-Jun-24 09:30N 33°46' W 118°13'0 0.0
2018-Jun-24 09:01N 33°46' W 118°13'0 0.0
2018-Jun-24 08:30N 33°46' W 118°13'0 0.0
2018-Jun-24 08:00N 33°46' W 118°13'0 0.0
2018-Jun-24 07:30N 33°46' W 118°13'0 0.0
2018-Jun-24 07:00N 33°46' W 118°13'0 0.0
2018-Jun-24 06:30N 33°46' W 118°13'0 0.0
2018-Jun-24 06:00N 33°46' W 118°13'0 0.0
2018-Jun-24 05:31N 33°46' W 118°13'0 0.0
2018-Jun-24 05:00N 33°46' W 118°13'0 0.0
2018-Jun-24 04:30N 33°46' W 118°13'0 0.0
2018-Jun-24 04:00N 33°46' W 118°13'0 0.0
2018-Jun-24 03:30N 33°46' W 118°13'0 0.0
2018-Jun-24 03:00N 33°46' W 118°13'0 0.1
2018-Jun-24 02:31N 33°46' W 118°13'0 0.0
2018-Jun-24 02:01N 33°46' W 118°13'0 0.1
2018-Jun-24 01:30N 33°46' W 118°13'0 0.1
2018-Jun-24 01:00N 33°46' W 118°13'0 0.0
2018-Jun-24 00:30N 33°46' W 118°13'0 0.0
2018-Jun-24 00:01N 33°46' W 118°13'0 0.0
2018-Jun-23 23:31N 33°46' W 118°13'0 0.0
2018-Jun-23 23:00N 33°46' W 118°13'0 0.0
2018-Jun-23 22:30N 33°46' W 118°13'0 0.0
2018-Jun-23 22:00N 33°46' W 118°13'0 0.0
2018-Jun-23 21:31N 33°46' W 118°13'0 0.0
2018-Jun-23 21:00N 33°46' W 118°13'0 0.0
2018-Jun-23 20:30N 33°46' W 118°13'0 0.0
2018-Jun-23 20:00N 33°46' W 118°13'0 0.0
2018-Jun-23 19:30N 33°46' W 118°13'0 0.0
2018-Jun-23 19:00N 33°46' W 118°13'0 0.1
2018-Jun-23 18:30N 33°46' W 118°13'0 0.1
2018-Jun-23 18:00N 33°46' W 118°13'0 0.1
2018-Jun-23 17:30N 33°46' W 118°13'0 0.1
2018-Jun-23 17:00N 33°46' W 118°13'0 0.0
2018-Jun-23 16:30N 33°46' W 118°13'0 0.0
2018-Jun-23 16:00N 33°46' W 118°13'0 0.0
2018-Jun-23 15:31N 33°46' W 118°13'0 0.1
2018-Jun-23 15:00N 33°46' W 118°13'0 0.0
2018-Jun-23 14:30N 33°46' W 118°13'0 0.1
2018-Jun-23 14:00N 33°46' W 118°13'0 0.1
2018-Jun-23 13:30N 33°46' W 118°13'0 0.1
2018-Jun-23 13:00N 33°46' W 118°13'0 0.0
2018-Jun-23 12:30N 33°46' W 118°13'0 0.0
2018-Jun-23 12:00N 33°46' W 118°13'0 0.0
2018-Jun-23 11:30N 33°46' W 118°13'0 0.0
2018-Jun-23 11:00N 33°46' W 118°13'0 0.1
2018-Jun-23 10:30N 33°46' W 118°13'0 0.0
2018-Jun-23 10:00N 33°46' W 118°13'0 0.1
2018-Jun-23 09:30N 33°46' W 118°13'0 0.0
2018-Jun-23 09:00N 33°46' W 118°13'0 0.0
2018-Jun-23 08:30N 33°46' W 118°13'0 0.0
2018-Jun-23 08:00N 33°46' W 118°13'0 0.0
2018-Jun-23 07:30N 33°46' W 118°13'0 0.0
2018-Jun-23 07:00N 33°46' W 118°13'0 0.0
2018-Jun-23 06:31N 33°46' W 118°13'0 0.0
2018-Jun-23 06:00N 33°46' W 118°13'0 0.1
2018-Jun-23 05:30N 33°46' W 118°13'0 0.1
2018-Jun-23 05:01N 33°46' W 118°13'0 0.0
2018-Jun-23 04:30N 33°46' W 118°13'0 0.0
2018-Jun-23 04:00N 33°46' W 118°13'0 0.0
2018-Jun-23 03:30N 33°46' W 118°13'0 0.0
2018-Jun-23 03:00N 33°46' W 118°13'0 0.0
2018-Jun-23 02:30N 33°46' W 118°13'0 0.1
2018-Jun-23 02:00N 33°46' W 118°13'0 0.0
2018-Jun-23 01:30N 33°46' W 118°13'0 0.0
2018-Jun-23 01:00N 33°46' W 118°13'0 0.0
2018-Jun-23 00:30N 33°46' W 118°13'0 0.0
2018-Jun-23 00:00N 33°46' W 118°13'0 0.0
2018-Jun-22 23:31N 33°46' W 118°13'0 0.0
2018-Jun-22 23:00N 33°46' W 118°13'0 0.0
2018-Jun-22 22:29N 33°46' W 118°13'0 0.1
2018-Jun-22 22:00N 33°46' W 118°13'0 0.0
2018-Jun-22 21:29N 33°46' W 118°13'0 0.0
2018-Jun-22 20:59N 33°46' W 118°13'0 0.0
2018-Jun-22 20:30N 33°46' W 118°13'0 0.0
2018-Jun-22 20:00N 33°46' W 118°13'0 0.0
2018-Jun-22 19:30N 33°46' W 118°13'0 0.1
2018-Jun-22 19:00N 33°46' W 118°13'0 0.0
2018-Jun-22 18:30N 33°46' W 118°13'0 0.3
2018-Jun-22 18:00N 33°46' W 118°13'0 0.1
2018-Jun-22 17:30N 33°46' W 118°13'0 0.0
2018-Jun-22 17:01N 33°46' W 118°13'0 0.0
2018-Jun-22 16:31N 33°46' W 118°13'0 0.0
2018-Jun-22 16:00N 33°46' W 118°13'0 0.0
2018-Jun-22 15:30N 33°46' W 118°13'0 0.0
2018-Jun-22 14:59N 33°46' W 118°13'0 0.0
2018-Jun-22 14:30N 33°46' W 118°13'0 0.0
2018-Jun-22 14:00N 33°46' W 118°13'0 0.0
2018-Jun-22 13:30N 33°46' W 118°13'0 0.0
2018-Jun-22 13:00N 33°46' W 118°13'0 0.0
2018-Jun-22 12:30N 33°46' W 118°13'0 0.0
2018-Jun-22 12:01N 33°46' W 118°13'0 0.0
2018-Jun-22 11:31N 33°46' W 118°13'0 0.0
2018-Jun-22 11:00N 33°46' W 118°13'0 0.0
2018-Jun-22 10:29N 33°46' W 118°13'0 0.0
2018-Jun-22 10:00N 33°46' W 118°13'0 0.0
2018-Jun-22 09:30N 33°46' W 118°13'0 0.0
2018-Jun-22 09:00N 33°46' W 118°13'0 0.0
2018-Jun-22 08:29N 33°46' W 118°13'0 0.0
2018-Jun-22 08:00N 33°46' W 118°13'0 0.0
2018-Jun-22 07:30N 33°46' W 118°13'0 0.0
2018-Jun-22 07:00N 33°46' W 118°13'0 0.0
2018-Jun-22 06:30N 33°46' W 118°13'0 0.0
2018-Jun-22 06:00N 33°46' W 118°13'0 0.0
2018-Jun-22 05:30N 33°46' W 118°13'0 0.0
2018-Jun-22 05:00N 33°46' W 118°13'1 2.8
2018-Jun-22 04:30N 33°45' W 118°13'3 5.7
2018-Jun-22 04:00N 33°43' W 118°15'3 5.5
2018-Jun-22 03:29N 33°41' W 118°18'3 5.8
2018-Jun-22 03:00N 33°42' W 118°21'8 5.3
2018-Jun-22 01:30N 33°48' W 118°27'3 5.5
2018-Jun-22 01:00N 33°50' W 118°28'  

Dump ship's entire track history